createdAt,value
2023-01-13T00:01:20.875Z,198.85
2023-01-13T00:03:48.167Z,207.48
2023-01-13T00:06:17.531Z,207.82
2023-01-13T00:08:45.120Z,210.80
2023-01-13T00:11:11.936Z,209.38
2023-01-13T00:13:38.991Z,213.85
2023-01-13T00:16:12.202Z,210.02
2023-01-13T00:18:39.172Z,206.13
2023-01-13T00:21:11.473Z,208.00
2023-01-13T00:23:38.415Z,218.13
2023-01-13T00:26:11.186Z,212.15
2023-01-13T00:28:38.408Z,209.35
2023-01-13T00:31:10.055Z,205.32
2023-01-13T00:33:37.846Z,213.77
2023-01-13T00:36:06.266Z,211.23
2023-01-13T00:38:35.078Z,210.00
2023-01-13T00:41:07.532Z,205.15
2023-01-13T00:43:35.813Z,208.88
2023-01-13T00:46:04.015Z,206.15
2023-01-13T00:48:32.641Z,210.90
2023-01-13T00:51:02.083Z,212.43
2023-01-13T00:53:30.550Z,214.80
2023-01-13T00:56:06.337Z,211.50
2023-01-13T00:58:35.095Z,209.38
2023-01-13T01:01:04.071Z,208.82
2023-01-13T01:03:31.844Z,207.55
2023-01-13T01:06:08.557Z,208.68
2023-01-13T01:08:35.998Z,209.13
2023-01-13T01:11:11.517Z,207.50
2023-01-13T01:13:38.919Z,218.73
2023-01-13T01:16:11.865Z,210.07
2023-01-13T01:18:43.074Z,201.85
2023-01-13T01:21:11.270Z,206.50
2023-01-13T01:23:39.111Z,207.73
2023-01-13T01:26:08.684Z,201.93
2023-01-13T01:28:35.688Z,206.45
2023-01-13T01:31:15.726Z,210.20
2023-01-13T01:33:42.738Z,210.45
2023-01-13T01:36:11.811Z,196.30
2023-01-13T01:38:38.863Z,194.38
2023-01-13T01:41:06.460Z,202.88
2023-01-13T01:44:02.506Z,199.95
2023-01-13T01:46:35.461Z,196.77
2023-01-13T01:49:16.967Z,189.43
2023-01-13T01:52:14.899Z,201.93
2023-01-13T01:54:54.170Z,200.85
2023-01-13T01:57:31.400Z,197.93
2023-01-13T02:00:01.154Z,188.55
2023-01-13T02:02:30.533Z,191.23
2023-01-13T02:04:57.963Z,190.32
2023-01-13T02:07:28.705Z,186.93
2023-01-13T02:09:57.949Z,197.65
2023-01-13T02:12:29.632Z,197.98
2023-01-13T02:15:03.812Z,196.77
2023-01-13T02:17:49.056Z,183.40
2023-01-13T02:20:35.014Z,186.32
2023-01-13T02:23:54.593Z,184.05
2023-01-13T02:26:45.061Z,193.25
2023-01-13T02:29:52.074Z,182.63
2023-01-13T02:32:45.056Z,184.63
2023-01-13T02:35:39.609Z,183.57
2023-01-13T02:38:11.262Z,185.07
2023-01-13T02:40:46.755Z,183.75
2023-01-13T02:43:57.663Z,191.00
2023-01-13T02:46:30.173Z,178.52
2023-01-13T02:49:03.258Z,181.65
2023-01-13T02:51:32.617Z,185.15
2023-01-13T02:54:09.482Z,185.40
2023-01-13T02:56:42.239Z,190.45
2023-01-13T02:59:10.337Z,199.40
2023-01-13T03:01:37.277Z,182.07
2023-01-13T03:04:14.883Z,184.50
2023-01-13T03:07:13.768Z,191.82
2023-01-13T03:09:49.976Z,183.40
2023-01-13T03:15:17.988Z,187.30
2023-01-13T03:17:55.963Z,191.82
2023-01-13T03:20:27.648Z,184.68
2023-01-13T03:23:06.784Z,189.73
2023-01-13T03:25:40.129Z,186.35
2023-01-13T03:28:09.827Z,192.88
2023-01-13T03:30:43.098Z,183.73
2023-01-13T03:33:36.435Z,185.52
2023-01-13T03:36:08.229Z,181.52
2023-01-13T03:38:44.226Z,180.90
2023-01-13T03:41:17.452Z,184.93
2023-01-13T03:44:19.705Z,185.65
2023-01-13T03:47:11.686Z,184.38
2023-01-13T03:49:47.436Z,188.20
2023-01-13T03:52:22.480Z,188.15
2023-01-13T03:54:57.759Z,183.05
2023-01-13T03:57:30.625Z,183.27
2023-01-13T04:00:00.925Z,186.95
2023-01-13T04:02:33.383Z,185.90
2023-01-13T04:05:03.220Z,184.30
2023-01-13T04:07:33.525Z,181.50
2023-01-13T04:10:04.717Z,177.90
2023-01-13T04:12:53.841Z,192.23
2023-01-13T04:15:28.200Z,197.60
2023-01-13T04:18:01.732Z,193.18
2023-01-13T04:20:28.704Z,191.68
2023-01-13T04:22:55.528Z,187.70
2023-01-13T04:25:22.385Z,189.20
2023-01-13T04:27:49.319Z,181.70
2023-01-13T04:30:16.405Z,175.40
2023-01-13T04:32:43.267Z,184.52
2023-01-13T04:35:10.756Z,186.90
2023-01-13T04:37:37.596Z,186.43
2023-01-13T04:40:05.140Z,198.40
2023-01-13T04:42:31.961Z,193.70
2023-01-13T04:44:58.799Z,194.32
2023-01-13T04:47:28.735Z,188.82
2023-01-13T04:49:55.578Z,188.85
2023-01-13T04:52:22.456Z,188.40
2023-01-13T04:54:49.340Z,182.75
2023-01-13T04:57:16.213Z,185.70
2023-01-13T04:59:43.081Z,196.20
2023-01-13T05:02:10.033Z,191.48
2023-01-13T05:04:36.918Z,187.15
2023-01-13T05:07:03.865Z,187.60
2023-01-13T05:09:30.744Z,194.60
2023-01-13T05:12:16.065Z,190.77
2023-01-13T05:15:01.619Z,190.70
2023-01-13T05:17:28.555Z,189.27
2023-01-13T05:19:55.482Z,174.05
2023-01-13T05:22:40.956Z,183.65
2023-01-13T05:25:23.185Z,188.35
2023-01-13T05:27:50.670Z,187.88
2023-01-13T05:30:18.955Z,185.48
2023-01-13T05:32:45.937Z,192.95
2023-01-13T05:35:12.851Z,195.45
2023-01-13T05:37:39.695Z,179.98
2023-01-13T05:40:25.986Z,187.05
2023-01-13T05:43:24.899Z,186.40
2023-01-13T05:45:59.271Z,184.93
2023-01-13T05:48:35.059Z,183.98
2023-01-13T05:51:04.024Z,191.75
2023-01-13T05:53:31.405Z,184.82
2023-01-13T05:55:58.328Z,190.48
2023-01-13T05:58:27.510Z,191.50
2023-01-13T06:01:00.233Z,184.10
2023-01-13T06:03:27.178Z,181.38
2023-01-13T06:05:58.865Z,185.25
2023-01-13T06:08:26.210Z,186.25
2023-01-13T06:10:53.389Z,185.68
2023-01-13T06:13:20.780Z,194.55
2023-01-13T06:15:47.665Z,185.63
2023-01-13T06:18:14.670Z,185.02
2023-01-13T06:20:41.540Z,187.52
2023-01-13T06:23:10.987Z,191.20
2023-01-13T06:25:53.746Z,186.20
2023-01-13T06:28:20.592Z,191.38
2023-01-13T06:30:51.109Z,192.30
2023-01-13T06:33:24.847Z,188.70
2023-01-13T06:36:00.273Z,184.43
2023-01-13T06:38:29.454Z,181.00
2023-01-13T06:40:56.413Z,186.77
2023-01-13T06:43:23.315Z,180.15
2023-01-13T06:45:53.637Z,182.10
2023-01-13T06:48:28.063Z,181.10
2023-01-13T06:50:54.948Z,195.50
2023-01-13T06:53:21.946Z,202.57
2023-01-13T06:55:48.798Z,194.10
2023-01-13T06:58:15.683Z,200.65
2023-01-13T07:00:42.972Z,201.32
2023-01-13T07:03:13.726Z,204.02
2023-01-13T07:05:43.784Z,200.32
2023-01-13T07:08:11.202Z,205.45
2023-01-13T07:10:38.248Z,225.77
2023-01-13T07:13:25.493Z,212.00
2023-01-13T07:16:00.834Z,198.77
2023-01-13T07:18:31.619Z,188.70
2023-01-13T07:20:59.774Z,202.50
2023-01-13T07:23:31.877Z,205.07
2023-01-13T07:25:59.898Z,201.60
2023-01-13T07:28:28.176Z,194.93
2023-01-13T07:30:55.175Z,198.30
2023-01-13T07:33:22.623Z,206.23
2023-01-13T07:35:56.886Z,185.90
2023-01-13T07:38:23.894Z,186.40
2023-01-13T07:40:50.689Z,186.25
2023-01-13T07:43:32.472Z,181.95
2023-01-13T07:46:00.946Z,189.13
2023-01-13T07:48:28.556Z,181.48
2023-01-13T07:50:55.976Z,192.60
2023-01-13T07:53:25.285Z,188.75
2023-01-13T07:55:56.153Z,181.75
2023-01-13T07:58:23.796Z,190.52
2023-01-13T08:00:50.742Z,192.35
2023-01-13T08:03:17.724Z,200.70
2023-01-13T08:05:44.732Z,192.27
2023-01-13T08:08:11.596Z,193.50
2023-01-13T08:10:39.016Z,210.13
2023-01-13T08:13:18.482Z,225.70
2023-01-13T08:15:46.727Z,199.57
2023-01-13T08:18:14.125Z,200.25
2023-01-13T08:20:41.292Z,201.68
2023-01-13T08:23:08.152Z,199.52
2023-01-13T08:25:35.087Z,213.32
2023-01-13T08:28:02.235Z,197.85
2023-01-13T08:30:29.503Z,194.73
2023-01-13T08:32:56.704Z,194.70
2023-01-13T08:35:23.931Z,188.85
2023-01-13T08:37:51.491Z,193.30
2023-01-13T08:40:19.412Z,188.00
2023-01-13T08:42:48.581Z,193.95
2023-01-13T08:45:15.957Z,199.68
2023-01-13T08:47:42.850Z,195.48
2023-01-13T08:50:11.380Z,196.15
2023-01-13T08:52:38.378Z,192.55
2023-01-13T08:55:05.721Z,200.05
2023-01-13T08:57:32.648Z,193.45
2023-01-13T08:59:59.531Z,197.70
2023-01-13T09:02:26.988Z,191.27
2023-01-13T09:04:54.422Z,198.75
2023-01-13T09:07:21.678Z,203.48
2023-01-13T09:09:48.568Z,195.23
2023-01-13T09:12:35.067Z,204.90
2023-01-13T09:15:04.332Z,202.57
2023-01-13T09:17:31.264Z,189.40
2023-01-13T09:19:58.090Z,202.13
2023-01-13T09:22:27.319Z,197.38
2023-01-13T09:24:55.638Z,193.88
2023-01-13T09:27:23.738Z,196.82
2023-01-13T09:29:50.903Z,200.77
2023-01-13T09:32:17.688Z,196.07
2023-01-13T09:35:03.253Z,193.32
2023-01-13T09:37:34.418Z,189.88
2023-01-13T09:40:02.266Z,189.93
2023-01-13T09:43:03.885Z,194.98
2023-01-13T09:45:42.220Z,194.65
2023-01-13T09:48:52.314Z,187.48
2023-01-13T09:51:28.492Z,195.95
2023-01-13T09:54:03.115Z,186.07
2023-01-13T09:56:30.345Z,188.05
2023-01-13T09:58:57.934Z,183.27
2023-01-13T10:01:51.856Z,184.88
2023-01-13T10:04:18.914Z,199.02
2023-01-13T10:06:58.587Z,188.88
2023-01-13T10:09:40.018Z,190.95
2023-01-13T10:12:34.188Z,188.50
2023-01-13T10:15:01.312Z,189.50
2023-01-13T10:17:40.209Z,187.35
2023-01-13T10:20:25.301Z,193.73
2023-01-13T10:23:22.702Z,190.50
2023-01-13T10:26:13.297Z,187.73
2023-01-13T10:28:40.245Z,196.48
2023-01-13T10:31:15.625Z,186.65
2023-01-13T10:33:42.533Z,186.02
2023-01-13T10:36:12.433Z,195.98
2023-01-13T10:38:47.366Z,204.07
2023-01-13T10:41:14.158Z,195.15
2023-01-13T10:44:06.362Z,195.57
2023-01-13T10:46:49.933Z,198.38
2023-01-13T10:49:33.615Z,182.70
2023-01-13T10:52:02.259Z,187.10
2023-01-13T10:54:30.268Z,185.80
2023-01-13T10:57:19.376Z,186.30
2023-01-13T10:59:46.898Z,183.32
2023-01-13T11:02:25.377Z,187.63
2023-01-13T11:04:55.733Z,185.48
2023-01-13T11:07:38.685Z,191.88
2023-01-13T11:10:27.701Z,192.98
2023-01-13T11:13:01.851Z,204.65
2023-01-13T11:15:55.577Z,193.20
2023-01-13T11:18:43.763Z,198.82
2023-01-13T11:21:29.419Z,189.65
2023-01-13T11:24:38.192Z,201.02
2023-01-13T11:27:13.221Z,196.32
2023-01-13T11:30:21.238Z,192.73
2023-01-13T11:33:08.268Z,184.35
2023-01-13T11:35:40.993Z,189.32
2023-01-13T11:38:28.907Z,181.07
2023-01-13T11:41:05.501Z,201.90
2023-01-13T11:43:47.574Z,194.80
2023-01-13T11:46:14.474Z,183.68
2023-01-13T11:48:51.586Z,182.40
2023-01-13T11:51:43.742Z,188.93
2023-01-13T11:54:26.634Z,174.98
2023-01-13T11:57:19.540Z,176.47
2023-01-13T12:00:19.555Z,179.18
2023-01-13T12:02:58.215Z,178.05
2023-01-13T12:05:37.297Z,169.68
2023-01-13T12:08:52.191Z,178.52
2023-01-13T12:11:31.302Z,179.27
2023-01-13T12:16:49.179Z,174.15
2023-01-13T12:19:30.197Z,161.75
2023-01-13T12:22:17.983Z,167.13
2023-01-13T12:25:15.120Z,167.57
2023-01-13T12:30:42.802Z,167.70
2023-01-13T12:33:18.610Z,166.70
2023-01-13T12:36:15.537Z,161.70
2023-01-13T12:38:49.144Z,171.88
2023-01-13T12:41:30.918Z,173.27
2023-01-13T12:44:16.793Z,165.63
2023-01-13T12:46:46.253Z,169.70
2023-01-13T12:49:34.033Z,160.55
2023-01-13T12:52:08.002Z,163.45
2023-01-13T12:54:37.606Z,158.57
2023-01-13T12:57:22.500Z,153.10
2023-01-13T13:00:04.985Z,161.07
2023-01-13T13:02:33.067Z,151.40
2023-01-13T13:05:21.831Z,151.73
2023-01-13T13:08:08.116Z,155.18
2023-01-13T13:10:41.128Z,165.10
2023-01-13T13:13:25.419Z,158.00
2023-01-13T13:16:30.709Z,161.18
2023-01-13T13:19:20.215Z,152.75
2023-01-13T13:22:14.658Z,158.25
2023-01-13T13:24:57.664Z,158.02
2023-01-13T13:27:50.281Z,160.20
2023-01-13T13:30:27.277Z,160.13
2023-01-13T13:33:39.109Z,160.65
2023-01-13T13:36:21.312Z,162.65
2023-01-13T13:39:40.050Z,155.95
2023-01-13T13:42:46.414Z,153.60
2023-01-13T13:45:37.800Z,157.80
2023-01-13T13:48:28.081Z,154.75
2023-01-13T13:51:05.980Z,160.10
2023-01-13T13:53:42.131Z,156.70
2023-01-13T13:58:44.204Z,156.18
2023-01-13T14:01:22.076Z,159.30
2023-01-13T14:04:04.717Z,153.65
2023-01-13T14:06:33.016Z,157.23
2023-01-13T14:08:59.972Z,165.43
2023-01-13T14:11:29.719Z,163.13
2023-01-13T14:14:05.002Z,159.63
2023-01-13T14:16:35.473Z,156.90
2023-01-13T14:19:03.228Z,161.32
2023-01-13T14:21:31.150Z,158.52
2023-01-13T14:24:01.573Z,154.90
2023-01-13T14:26:33.130Z,158.07
2023-01-13T14:29:02.195Z,170.68
2023-01-13T14:31:30.681Z,169.18
2023-01-13T14:34:01.268Z,159.60
2023-01-13T14:36:34.205Z,159.30
2023-01-13T14:39:04.231Z,158.10
2023-01-13T14:41:34.458Z,168.60
2023-01-13T14:44:07.802Z,165.82
2023-01-13T14:46:43.214Z,164.95
2023-01-13T14:49:41.644Z,160.23
2023-01-13T14:52:23.834Z,167.57
2023-01-13T14:54:53.259Z,173.25
2023-01-13T14:57:27.787Z,166.15
2023-01-13T15:00:13.531Z,167.45
2023-01-13T15:02:59.590Z,177.93
2023-01-13T15:05:26.453Z,154.40
2023-01-13T15:08:12.040Z,167.32
2023-01-13T15:10:53.059Z,161.25
2023-01-13T15:13:29.154Z,160.68
2023-01-13T15:15:57.692Z,177.48
2023-01-13T15:18:24.608Z,158.63
2023-01-13T15:20:51.694Z,156.73
2023-01-13T15:23:19.777Z,158.05
2023-01-13T15:25:50.658Z,160.32
2023-01-13T15:28:23.523Z,159.55
2023-01-13T15:30:52.099Z,153.80
2023-01-13T15:33:20.324Z,160.48
2023-01-13T15:35:49.967Z,157.18
2023-01-13T15:38:19.791Z,163.30
2023-01-13T15:40:47.763Z,150.65
2023-01-13T15:43:41.277Z,151.55
2023-01-13T15:46:52.599Z,150.70
2023-01-13T15:49:26.862Z,163.43
2023-01-13T15:51:53.911Z,150.00
2023-01-13T15:54:24.659Z,160.10
2023-01-13T15:56:52.506Z,158.50
2023-01-13T15:59:24.293Z,168.20
2023-01-13T16:01:51.193Z,169.75
2023-01-13T16:04:18.197Z,163.05
2023-01-13T16:06:45.232Z,160.18
2023-01-13T16:09:14.144Z,156.85
2023-01-13T16:11:41.174Z,151.75
2023-01-13T16:14:08.054Z,164.77
2023-01-13T16:16:35.963Z,166.85
2023-01-13T16:19:03.236Z,167.45
2023-01-13T16:21:30.699Z,167.15
2023-01-13T16:23:57.502Z,158.35
2023-01-13T16:26:36.221Z,166.25
2023-01-13T16:29:09.695Z,158.35
2023-01-13T16:31:39.396Z,160.20
2023-01-13T16:34:06.725Z,154.85
2023-01-13T16:36:37.288Z,155.52
2023-01-13T16:39:19.317Z,160.20
2023-01-13T16:41:46.221Z,154.82
2023-01-13T16:44:18.422Z,166.23
2023-01-13T16:46:45.723Z,164.77
2023-01-13T16:49:15.013Z,155.95
2023-01-13T16:51:42.715Z,155.52
2023-01-13T16:54:12.444Z,157.00
2023-01-13T16:56:39.302Z,151.50
2023-01-13T16:59:14.826Z,148.50
2023-01-13T17:01:45.076Z,145.98
2023-01-13T17:04:22.253Z,148.27
2023-01-13T17:06:52.107Z,147.80
2023-01-13T17:09:22.301Z,150.68
2023-01-13T17:11:52.892Z,153.15
2023-01-13T17:14:23.666Z,160.27
2023-01-13T17:16:53.193Z,153.27
2023-01-13T17:19:22.686Z,163.00
2023-01-13T17:21:51.221Z,159.98
2023-01-13T17:24:18.510Z,159.38
2023-01-13T17:26:50.588Z,156.77
2023-01-13T17:29:25.201Z,143.18
2023-01-13T17:31:52.842Z,158.60
2023-01-13T17:34:21.245Z,158.18
2023-01-13T17:36:49.011Z,155.50
2023-01-13T17:39:26.865Z,152.68
2023-01-13T17:41:56.057Z,158.05
2023-01-13T17:44:23.717Z,164.98
2023-01-13T17:46:50.766Z,162.45
2023-01-13T17:49:19.863Z,152.55
2023-01-13T17:51:48.462Z,150.93
2023-01-13T17:54:15.985Z,157.63
2023-01-13T17:56:43.582Z,158.95
2023-01-13T17:59:15.314Z,153.25
2023-01-13T18:01:42.847Z,159.10
2023-01-13T18:04:15.622Z,154.00
2023-01-13T18:06:43.405Z,153.15
2023-01-13T18:09:10.696Z,163.23
2023-01-13T18:11:37.498Z,161.50
2023-01-13T18:14:04.403Z,151.75
2023-01-13T18:16:32.458Z,158.38
2023-01-13T18:19:18.632Z,156.38
2023-01-13T18:22:05.419Z,160.10
2023-01-13T18:24:51.237Z,152.73
2023-01-13T18:27:22.878Z,171.50
2023-01-13T18:29:55.058Z,155.80
2023-01-13T18:32:23.397Z,158.43
2023-01-13T18:34:53.987Z,152.82
2023-01-13T18:37:26.023Z,149.57
2023-01-13T18:39:53.045Z,158.15
2023-01-13T18:42:41.500Z,155.75
2023-01-13T18:45:10.531Z,154.55
2023-01-13T18:47:39.290Z,159.60
2023-01-13T18:50:06.766Z,154.32
2023-01-13T18:52:33.658Z,153.57
2023-01-13T18:55:02.704Z,148.50
2023-01-13T18:57:29.657Z,161.52
2023-01-13T18:59:59.669Z,156.63
2023-01-13T19:02:28.360Z,149.60
2023-01-13T19:05:04.040Z,163.75
2023-01-13T19:07:32.366Z,163.85
2023-01-13T19:10:02.364Z,157.07
2023-01-13T19:12:31.156Z,158.10
2023-01-13T19:14:58.684Z,159.95
2023-01-13T19:17:28.169Z,165.10
2023-01-13T19:19:57.406Z,170.57
2023-01-13T19:22:28.773Z,177.50
2023-01-13T19:24:56.073Z,183.43
2023-01-13T19:27:23.016Z,168.23
2023-01-13T19:29:52.790Z,174.10
2023-01-13T19:32:23.255Z,173.43
2023-01-13T19:34:51.410Z,164.50
2023-01-13T19:37:19.552Z,166.15
2023-01-13T19:39:46.974Z,174.73
2023-01-13T19:42:32.858Z,161.00
2023-01-13T19:45:18.147Z,169.57
2023-01-13T19:47:46.194Z,164.75
2023-01-13T19:50:14.106Z,177.10
2023-01-13T19:52:42.642Z,167.38
2023-01-13T19:55:12.416Z,161.57
2023-01-13T19:57:40.591Z,171.55
2023-01-13T20:00:09.649Z,164.02
2023-01-13T20:02:45.081Z,168.00
2023-01-13T20:05:15.402Z,162.82
2023-01-13T20:07:42.225Z,161.35
2023-01-13T20:10:09.653Z,158.65
2023-01-13T20:12:36.867Z,171.90
2023-01-13T20:15:04.021Z,164.57
2023-01-13T20:17:30.855Z,174.60
2023-01-13T20:19:59.190Z,163.25
2023-01-13T20:22:26.091Z,155.38
2023-01-13T20:24:55.380Z,162.75
2023-01-13T20:27:24.124Z,173.48
2023-01-13T20:29:51.213Z,173.63
2023-01-13T20:32:18.141Z,174.05
2023-01-13T20:34:45.189Z,160.00
2023-01-13T20:37:12.017Z,175.38
2023-01-13T20:39:41.255Z,180.50
2023-01-13T20:42:28.077Z,167.35
2023-01-13T20:44:58.795Z,169.77
2023-01-13T20:47:26.547Z,173.20
2023-01-13T20:49:53.802Z,173.00
2023-01-13T20:52:21.100Z,178.88
2023-01-13T20:54:47.945Z,169.10
2023-01-13T20:57:14.771Z,163.02
2023-01-13T20:59:41.692Z,175.68
2023-01-13T21:02:13.347Z,164.02
2023-01-13T21:04:40.509Z,215.05
2023-01-13T21:07:08.299Z,193.85
2023-01-13T21:09:35.916Z,187.63
2023-01-13T21:12:21.758Z,167.95
2023-01-13T21:15:07.433Z,178.07
2023-01-13T21:17:53.077Z,177.50
2023-01-13T21:20:20.011Z,181.80
2023-01-13T21:22:48.340Z,162.45
2023-01-13T21:25:16.757Z,165.73
2023-01-13T21:27:44.224Z,171.15
2023-01-13T21:30:15.095Z,190.43
2023-01-13T21:32:42.950Z,179.38
2023-01-13T21:35:10.033Z,172.32
2023-01-13T21:37:38.376Z,180.30
2023-01-13T21:40:06.751Z,170.65
2023-01-13T21:42:52.114Z,171.48
2023-01-13T21:45:37.601Z,168.57
2023-01-13T21:48:04.689Z,164.32
2023-01-13T21:50:32.124Z,175.82
2023-01-13T21:52:59.815Z,176.73
2023-01-13T21:55:26.959Z,173.30
2023-01-13T21:58:14.115Z,172.85
2023-01-13T22:00:43.232Z,172.35
2023-01-13T22:03:12.576Z,167.45
2023-01-13T22:05:40.075Z,172.32
2023-01-13T22:08:07.787Z,170.98
2023-01-13T22:10:34.847Z,174.35
2023-01-13T22:13:21.795Z,174.18
2023-01-13T22:15:48.765Z,170.15
2023-01-13T22:18:18.137Z,175.88
2023-01-13T22:20:45.478Z,164.65
2023-01-13T22:23:13.711Z,174.20
2023-01-13T22:25:40.569Z,167.63
2023-01-13T22:28:09.419Z,172.90
2023-01-13T22:30:36.405Z,163.70
2023-01-13T22:33:03.324Z,163.57
2023-01-13T22:35:30.179Z,165.27
2023-01-13T22:37:57.018Z,167.25
2023-01-13T22:40:23.851Z,170.90
2023-01-13T22:42:50.720Z,171.73
2023-01-13T22:45:17.764Z,172.15
2023-01-13T22:47:44.571Z,169.80
2023-01-13T22:50:12.753Z,157.40
2023-01-13T22:52:39.991Z,161.35
2023-01-13T22:55:07.779Z,169.95
2023-01-13T22:57:46.973Z,170.43
2023-01-13T23:00:16.453Z,151.57
2023-01-13T23:02:46.552Z,171.07
2023-01-13T23:05:13.984Z,151.32
2023-01-13T23:07:41.225Z,148.57
2023-01-13T23:10:08.564Z,164.18
2023-01-13T23:12:35.415Z,167.93
2023-01-13T23:15:02.364Z,171.50
2023-01-13T23:17:29.338Z,155.05
2023-01-13T23:19:56.214Z,154.13
2023-01-13T23:22:23.022Z,152.88
2023-01-13T23:24:49.930Z,163.73
2023-01-13T23:27:16.811Z,160.07
2023-01-13T23:29:43.651Z,165.82
2023-01-13T23:32:10.482Z,158.77
2023-01-13T23:34:37.308Z,159.00
2023-01-13T23:37:04.282Z,156.85
2023-01-13T23:39:31.086Z,156.88
2023-01-13T23:41:59.634Z,156.95
2023-01-13T23:44:26.485Z,165.50
2023-01-13T23:46:53.514Z,153.35
2023-01-13T23:49:20.605Z,155.27
2023-01-13T23:51:50.565Z,161.40
2023-01-13T23:54:18.254Z,163.63
2023-01-13T23:56:45.309Z,152.40
2023-01-13T23:59:12.172Z,165.32
